Time;durP1;ratioP1;P1;durP2;ratioP2;P2;SDS_P1;SDS_P2;PMS_P1;PMS_P2;Temp;Humidity;BMP_temperature;BMP_pressure;BME280_temperature;BME280_humidity;BME280_pressure;Samples;Min_cycle;Max_cycle;Signal;HPM_P1;HPM_P2
2021/08/10 00:02:26;;;;;;;4.88;3.35;;;14.10;99.90;;;;;;5054330;28;20052;-72
2021/08/10 00:04:53;;;;;;;4.70;3.50;;;14.00;99.90;;;;;;5063968;28;20090;-72
2021/08/10 00:07:22;;;;;;;4.57;3.70;;;14.00;99.90;;;;;;5073294;28;20560;-72
2021/08/10 00:09:48;;;;;;;4.55;3.70;;;14.10;99.90;;;;;;5068298;28;20053;-73
2021/08/10 00:12:15;;;;;;;6.60;4.30;;;14.00;99.90;;;;;;5060539;28;20049;-73
2021/08/10 00:14:42;;;;;;;5.60;3.78;;;14.00;99.90;;;;;;5072279;28;20496;-72
2021/08/10 00:17:08;;;;;;;5.13;3.80;;;14.20;99.90;;;;;;5072488;28;20048;-73
2021/08/10 00:19:35;;;;;;;3.50;3.20;;;14.20;99.90;;;;;;5056542;28;20497;-71
2021/08/10 00:22:03;;;;;;;4.47;3.65;;;14.10;99.90;;;;;;5053313;28;20467;-73
2021/08/10 00:24:30;;;;;;;5.72;3.42;;;14.00;99.90;;;;;;5052410;28;20048;-73
2021/08/10 00:26:57;;;;;;;8.45;4.38;;;14.00;99.90;;;;;;5052542;28;20045;-73
2021/08/10 00:29:23;;;;;;;5.13;4.18;;;14.00;99.90;;;;;;5051873;28;20103;-73
2021/08/10 00:31:50;;;;;;;5.55;4.43;;;13.90;99.90;;;;;;5053873;28;20045;-73
2021/08/10 00:34:16;;;;;;;6.07;4.13;;;13.90;99.90;;;;;;5072661;28;20108;-73
2021/08/10 00:36:43;;;;;;;4.88;3.80;;;13.90;99.90;;;;;;5073179;28;20185;-72
2021/08/10 00:39:11;;;;;;;4.95;3.53;;;13.90;99.90;;;;;;5068222;28;20045;-72
2021/08/10 00:41:38;;;;;;;5.95;4.13;;;13.90;99.90;;;;;;5052442;28;20045;-72
2021/08/10 00:44:05;;;;;;;4.40;3.58;;;13.90;99.90;;;;;;5052400;28;20067;-72
2021/08/10 00:46:31;;;;;;;4.88;4.05;;;13.90;99.90;;;;;;5052113;28;20497;-72
2021/08/10 00:48:58;;;;;;;4.95;3.42;;;13.80;99.90;;;;;;5052358;28;20086;-72
2021/08/10 00:51:26;;;;;;;5.63;4.00;;;13.70;99.90;;;;;;5052853;28;20087;-72
2021/08/10 00:53:52;;;;;;;5.55;4.30;;;13.70;99.90;;;;;;5052162;28;20041;-72
2021/08/10 00:56:21;;;;;;;6.57;4.35;;;13.70;99.90;;;;;;5052422;28;20123;-72
2021/08/10 00:58:47;;;;;;;6.68;4.45;;;13.70;99.90;;;;;;5051262;28;20452;-73
2021/08/10 01:01:14;;;;;;;6.30;4.55;;;13.80;99.90;;;;;;5063351;28;20310;-73
2021/08/10 01:03:41;;;;;;;5.60;4.35;;;13.80;99.90;;;;;;5056358;28;20405;-73
2021/08/10 01:06:12;;;;;;;5.18;4.68;;;13.70;99.90;;;;;;5054623;28;20045;-73
2021/08/10 01:08:49;;;;;;;4.85;4.35;;;13.70;99.90;;;;;;5031933;28;20045;-73
2021/08/10 01:11:22;;;;;;;4.53;3.70;;;13.70;99.90;;;;;;5051272;28;20048;-73
2021/08/10 01:13:54;;;;;;;5.68;4.20;;;13.70;99.90;;;;;;5052620;28;20049;-72
2021/08/10 01:16:27;;;;;;;4.95;3.75;;;13.70;99.90;;;;;;5052914;28;20114;-73
2021/08/10 01:19:02;;;;;;;4.43;3.78;;;13.70;99.90;;;;;;5051643;28;20049;-73
2021/08/10 01:21:35;;;;;;;5.15;4.57;;;13.60;99.90;;;;;;5051997;28;20489;-73
2021/08/10 01:24:05;;;;;;;8.95;5.05;;;13.50;99.90;;;;;;5052011;28;20494;-72
2021/08/10 01:26:44;;;;;;;6.07;4.00;;;13.60;99.90;;;;;;5052275;28;20049;-72
2021/08/10 01:29:19;;;;;;;6.85;4.80;;;13.60;99.90;;;;;;5053527;28;20049;-73
2021/08/10 01:31:49;;;;;;;4.57;4.18;;;13.60;99.90;;;;;;5051923;28;20037;-73
2021/08/10 01:34:22;;;;;;;5.43;4.72;;;13.50;99.90;;;;;;5068492;28;20044;-73
2021/08/10 01:36:51;;;;;;;5.45;4.63;;;13.50;99.90;;;;;;5057146;28;20079;-73
2021/08/10 01:39:20;;;;;;;4.70;3.97;;;13.50;99.90;;;;;;5051992;28;20052;-73
2021/08/10 01:41:47;;;;;;;5.18;4.07;;;13.50;99.90;;;;;;5053076;28;20421;-73
2021/08/10 01:44:16;;;;;;;5.47;4.45;;;13.50;99.90;;;;;;5055567;28;20452;-73
2021/08/10 01:46:42;;;;;;;6.10;4.20;;;13.60;99.90;;;;;;5061480;28;20501;-73
2021/08/10 01:49:12;;;;;;;5.10;4.60;;;13.50;99.90;;;;;;5061757;28;20486;-73
2021/08/10 01:51:41;;;;;;;8.30;4.63;;;13.60;99.90;;;;;;5055006;28;20060;-73
2021/08/10 01:54:09;;;;;;;5.78;4.18;;;13.50;99.90;;;;;;5056377;28;20041;-73
2021/08/10 01:56:37;;;;;;;4.22;3.83;;;13.50;99.90;;;;;;5056770;28;20485;-73
2021/08/10 01:59:05;;;;;;;6.13;3.70;;;13.50;99.90;;;;;;5075454;28;20048;-74
2021/08/10 02:01:32;;;;;;;4.28;3.88;;;13.60;99.90;;;;;;5076101;28;20044;-73
2021/08/10 02:03:59;;;;;;;4.22;3.80;;;13.60;99.90;;;;;;5076006;28;20109;-73
2021/08/10 02:06:29;;;;;;;4.30;3.90;;;13.50;99.90;;;;;;5070558;28;20041;-73
2021/08/10 02:08:57;;;;;;;5.95;4.28;;;13.50;99.90;;;;;;5056334;28;20049;-73
2021/08/10 02:11:26;;;;;;;5.13;4.10;;;13.40;99.90;;;;;;5056606;28;20108;-73
2021/08/10 02:13:53;;;;;;;6.18;4.38;;;13.40;99.90;;;;;;5073320;28;20048;-73
2021/08/10 02:16:21;;;;;;;4.60;4.15;;;13.50;99.90;;;;;;5057988;28;20119;-72
2021/08/10 02:18:48;;;;;;;4.20;3.55;;;13.60;99.90;;;;;;5073432;28;20052;-73
2021/08/10 02:21:25;;;;;;;7.45;4.40;;;13.60;99.90;;;;;;5063646;28;20095;-72
2021/08/10 02:23:57;;;;;;;6.03;4.05;;;13.60;99.90;;;;;;5063010;28;20108;-72
2021/08/10 02:26:24;;;;;;;4.78;4.32;;;13.50;99.90;;;;;;5073013;28;20128;-73
2021/08/10 02:28:51;;;;;;;4.72;4.15;;;13.40;99.90;;;;;;5055026;28;20067;-72
2021/08/10 02:31:19;;;;;;;7.72;4.10;;;13.40;99.90;;;;;;5072262;28;20041;-73
2021/08/10 02:33:47;;;;;;;7.90;4.80;;;13.40;99.90;;;;;;5075652;28;20481;-73
2021/08/10 02:36:15;;;;;;;5.25;4.15;;;13.40;99.90;;;;;;5066783;28;20103;-73
2021/08/10 02:38:43;;;;;;;4.60;4.15;;;13.40;99.90;;;;;;5054750;28;20041;-73
2021/08/10 02:41:12;;;;;;;5.40;4.50;;;13.30;99.90;;;;;;5055078;28;20468;-73
2021/08/10 02:43:40;;;;;;;6.80;5.03;;;13.20;99.90;;;;;;5068214;28;20071;-73
2021/08/10 02:46:07;;;;;;;7.40;4.32;;;13.20;99.90;;;;;;5073373;28;20400;-73
2021/08/10 02:48:34;;;;;;;6.95;4.32;;;13.20;99.90;;;;;;5073557;28;20075;-73
2021/08/10 02:51:00;;;;;;;5.82;4.30;;;13.30;99.90;;;;;;5064849;28;20041;-73
2021/08/10 02:53:27;;;;;;;6.40;4.45;;;13.30;99.90;;;;;;5054748;28;20045;-72
2021/08/10 02:56:00;;;;;;;6.43;4.20;;;13.30;99.90;;;;;;5054685;28;20049;-73
2021/08/10 02:58:32;;;;;;;8.48;4.97;;;13.30;99.90;;;;;;5059597;28;20083;-73
2021/08/10 03:01:02;;;;;;;7.38;4.82;;;13.30;99.90;;;;;;5054567;28;20049;-73
2021/08/10 03:03:33;;;;;;;6.28;4.55;;;13.30;99.90;;;;;;5054429;28;20045;-73
2021/08/10 03:06:02;;;;;;;4.72;3.95;;;13.30;99.90;;;;;;5054826;28;20045;-73
2021/08/10 03:08:32;;;;;;;5.85;3.85;;;13.30;99.90;;;;;;5062964;28;20082;-73
2021/08/10 03:11:00;;;;;;;5.57;4.53;;;13.30;99.90;;;;;;5069422;28;20056;-73
2021/08/10 03:13:33;;;;;;;8.60;5.32;;;13.20;99.90;;;;;;5057642;28;20040;-73
2021/08/10 03:16:01;;;;;;;4.22;3.83;;;13.20;99.90;;;;;;5054058;28;20114;-73
2021/08/10 03:18:35;;;;;;;5.05;4.10;;;13.20;99.90;;;;;;5053748;28;20041;-73
2021/08/10 03:21:03;;;;;;;5.00;4.28;;;13.20;99.90;;;;;;5053725;28;20052;-72
2021/08/10 03:23:33;;;;;;;4.75;4.20;;;13.20;99.90;;;;;;5053880;28;20135;-73
2021/08/10 03:26:00;;;;;;;4.95;4.43;;;13.10;99.90;;;;;;5053945;28;20045;-73
2021/08/10 03:28:30;;;;;;;8.75;5.00;;;13.20;99.90;;;;;;5052068;28;20086;-73
2021/08/10 03:30:58;;;;;;;9.00;4.70;;;13.10;99.90;;;;;;5053130;28;20053;-73
2021/08/10 03:33:28;;;;;;;6.03;4.50;;;13.10;99.90;;;;;;5052894;28;20087;-71
2021/08/10 03:35:55;;;;;;;4.32;3.88;;;13.00;99.90;;;;;;5052954;28;20496;-69
2021/08/10 03:38:23;;;;;;;10.43;4.47;;;13.00;99.90;;;;;;5058942;28;20401;-72
2021/08/10 03:40:52;;;;;;;5.40;4.97;;;13.10;99.90;;;;;;5054533;28;20044;-73
2021/08/10 03:43:20;;;;;;;7.93;4.85;;;13.10;99.90;;;;;;5068875;28;20400;-70
2021/08/10 03:45:51;;;;;;;5.05;4.43;;;13.10;99.90;;;;;;5052330;28;20132;-69
2021/08/10 03:48:19;;;;;;;7.75;4.38;;;13.10;99.90;;;;;;5051222;28;20056;-68
2021/08/10 03:50:46;;;;;;;6.15;4.88;;;13.10;99.90;;;;;;5064468;28;20059;-68
2021/08/10 03:53:14;;;;;;;8.30;5.60;;;13.10;99.90;;;;;;5072980;28;20493;-71
2021/08/10 03:55:41;;;;;;;14.43;9.52;;;13.10;99.90;;;;;;5072525;28;20040;-74
2021/08/10 03:58:09;;;;;;;5.15;4.28;;;13.10;99.90;;;;;;5061514;28;20396;-72
2021/08/10 04:00:38;;;;;;;6.00;4.70;;;13.10;99.90;;;;;;5051740;28;20052;-72
2021/08/10 04:03:10;;;;;;;27.58;18.15;;;13.20;99.90;;;;;;5056965;28;20072;-75
2021/08/10 04:05:43;;;;;;;30.33;19.73;;;13.10;99.90;;;;;;5071526;28;20040;-69
2021/08/10 04:08:11;;;;;;;15.07;10.40;;;13.10;99.90;;;;;;5058328;28;20064;-71
2021/08/10 04:10:41;;;;;;;10.20;6.97;;;13.10;99.90;;;;;;5051858;28;20057;-72
2021/08/10 04:13:09;;;;;;;51.25;30.33;;;13.00;99.90;;;;;;5058684;28;20052;-71
2021/08/10 04:15:42;;;;;;;14.15;10.32;;;13.10;99.90;;;;;;5067475;28;20440;-72
2021/08/10 04:18:13;;;;;;;15.30;9.27;;;13.20;99.90;;;;;;5052120;28;20489;-72
2021/08/10 04:20:40;;;;;;;16.33;10.93;;;13.30;99.90;;;;;;5053146;28;20580;-75
2021/08/10 04:23:07;;;;;;;17.20;11.13;;;13.30;99.90;;;;;;5069566;28;20117;-67
2021/08/10 04:25:35;;;;;;;21.80;11.88;;;13.30;99.90;;;;;;5051990;28;20437;-64
2021/08/10 04:28:02;;;;;;;17.98;11.23;;;13.40;99.90;;;;;;5052013;28;20415;-67
2021/08/10 04:30:30;;;;;;;19.23;11.10;;;13.50;99.90;;;;;;5051151;28;20048;-67
2021/08/10 04:32:57;;;;;;;30.80;16.85;;;13.50;99.90;;;;;;5052238;28;20083;-69
2021/08/10 04:35:26;;;;;;;5.30;4.82;;;13.60;99.90;;;;;;5051728;28;20493;-68
2021/08/10 04:37:53;;;;;;;5.15;4.20;;;13.60;99.90;;;;;;5051547;28;20067;-65
2021/08/10 04:40:20;;;;;;;7.35;4.97;;;13.70;99.90;;;;;;5050808;28;20044;-67
2021/08/10 04:42:46;;;;;;;30.30;16.73;;;13.70;99.90;;;;;;5053768;28;20147;-69
2021/08/10 04:45:13;;;;;;;30.75;19.40;;;13.70;99.90;;;;;;5070664;28;20090;-70
2021/08/10 04:47:40;;;;;;;37.45;22.60;;;13.70;99.90;;;;;;5056546;28;20397;-67
2021/08/10 04:50:07;;;;;;;10.23;7.60;;;13.70;99.90;;;;;;5050727;28;20080;-71
2021/08/10 04:52:36;;;;;;;16.15;9.63;;;13.80;99.90;;;;;;5048091;28;20045;-71
2021/08/10 04:55:03;;;;;;;21.10;12.30;;;13.90;99.90;;;;;;5051305;28;20668;-72
2021/08/10 04:57:30;;;;;;;7.07;5.35;;;13.90;99.90;;;;;;5051572;28;20045;-71
2021/08/10 04:59:56;;;;;;;21.90;11.45;;;14.10;99.90;;;;;;5057140;28;20067;-70
2021/08/10 05:02:23;;;;;;;19.40;11.85;;;14.20;99.90;;;;;;5070993;28;20463;-68
2021/08/10 05:04:50;;;;;;;7.55;5.20;;;14.20;99.90;;;;;;5061416;28;20045;-69
2021/08/10 05:07:17;;;;;;;6.75;4.75;;;14.40;99.90;;;;;;5051724;28;20052;-69
2021/08/10 05:09:45;;;;;;;4.85;4.07;;;14.50;99.90;;;;;;5050810;28;20045;-69
2021/08/10 05:12:12;;;;;;;9.98;6.30;;;14.60;99.90;;;;;;5051498;28;20045;-72
2021/08/10 05:14:38;;;;;;;9.57;5.82;;;14.60;99.90;;;;;;5051568;28;20088;-69
2021/08/10 05:17:05;;;;;;;6.95;5.68;;;14.70;99.90;;;;;;5051425;28;20052;-70
2021/08/10 05:19:33;;;;;;;18.02;10.93;;;14.80;99.90;;;;;;5053962;28;20091;-69
2021/08/10 05:21:59;;;;;;;11.43;8.45;;;14.80;99.90;;;;;;5055153;28;20052;-68
2021/08/10 05:24:26;;;;;;;7.28;5.20;;;14.90;99.90;;;;;;5055076;28;20041;-69
2021/08/10 05:26:54;;;;;;;6.65;3.70;;;15.00;99.90;;;;;;5056060;28;20555;-71
2021/08/10 05:29:21;;;;;;;4.88;4.03;;;15.00;99.90;;;;;;5054255;28;20398;-70
2021/08/10 05:31:47;;;;;;;7.28;4.55;;;15.20;99.90;;;;;;5054944;28;20563;-67
2021/08/10 05:34:14;;;;;;;5.25;4.28;;;15.20;99.90;;;;;;5070397;28;20045;-69
2021/08/10 05:36:41;;;;;;;17.08;10.48;;;15.20;99.90;;;;;;5055199;28;20119;-69
2021/08/10 05:39:08;;;;;;;7.47;4.35;;;15.30;99.90;;;;;;5054295;28;20051;-68
2021/08/10 05:41:35;;;;;;;5.72;4.30;;;15.40;99.90;;;;;;5065081;28;20044;-71
2021/08/10 05:44:03;;;;;;;5.32;4.15;;;15.50;99.90;;;;;;5054796;28;20545;-68
2021/08/10 05:46:30;;;;;;;7.95;4.97;;;15.60;99.90;;;;;;5055738;28;20508;-68
2021/08/10 05:48:58;;;;;;;4.32;3.92;;;15.70;99.90;;;;;;5053663;28;20045;-69
2021/08/10 05:51:25;;;;;;;10.10;4.82;;;15.80;99.90;;;;;;5054146;28;20064;-69
2021/08/10 05:53:52;;;;;;;4.53;4.13;;;15.90;99.90;;;;;;5054468;28;20045;-71
2021/08/10 05:56:19;;;;;;;6.75;4.78;;;16.10;99.90;;;;;;5054080;28;20036;-67
2021/08/10 05:58:46;;;;;;;16.63;9.23;;;16.20;99.90;;;;;;5053885;28;20543;-67
2021/08/10 06:01:14;;;;;;;10.10;6.38;;;16.50;99.90;;;;;;5056700;28;20103;-64
2021/08/10 06:03:41;;;;;;;9.52;6.95;;;16.80;99.90;;;;;;5054830;28;20045;-76
2021/08/10 06:06:09;;;;;;;3.35;2.80;;;17.00;99.90;;;;;;5067697;28;20443;-74
2021/08/10 06:08:36;;;;;;;3.13;2.83;;;17.10;99.90;;;;;;5074037;28;20053;-77
2021/08/10 06:11:02;;;;;;;4.57;2.90;;;17.30;99.90;;;;;;5033752;28;20061;-66
2021/08/10 06:13:29;;;;;;;3.75;3.00;;;17.60;99.90;;;;;;5042273;28;20095;-65
2021/08/10 06:15:56;;;;;;;3.30;2.90;;;17.70;99.90;;;;;;5054310;28;20049;-66
2021/08/10 06:18:24;;;;;;;6.25;3.60;;;17.90;99.90;;;;;;5059654;28;20049;-68
2021/08/10 06:20:51;;;;;;;3.33;2.75;;;18.20;99.90;;;;;;5055456;28;20045;-67
2021/08/10 06:23:18;;;;;;;2.75;2.53;;;18.30;99.90;;;;;;5054678;28;20092;-68
2021/08/10 06:25:45;;;;;;;3.22;2.92;;;18.60;99.90;;;;;;5060215;28;20049;-67
2021/08/10 06:28:11;;;;;;;3.25;2.95;;;18.80;99.90;;;;;;5068271;28;20048;-67
2021/08/10 06:30:38;;;;;;;6.45;3.97;;;18.90;99.90;;;;;;5061285;28;20041;-68
2021/08/10 06:33:05;;;;;;;5.35;2.80;;;19.10;99.90;;;;;;5068076;28;20053;-67
2021/08/10 06:35:33;;;;;;;4.43;2.75;;;19.50;99.90;;;;;;5073720;28;20053;-67
2021/08/10 06:37:59;;;;;;;3.53;2.70;;;19.70;99.90;;;;;;5073263;28;20036;-68
2021/08/10 06:40:26;;;;;;;40.90;22.23;;;20.00;99.90;;;;;;5072880;28;20496;-69
2021/08/10 06:42:53;;;;;;;4.85;3.38;;;20.30;99.90;;;;;;5073364;28;20052;-68
2021/08/10 06:45:20;;;;;;;8.85;4.13;;;20.20;99.90;;;;;;5067697;28;20049;-69
2021/08/10 06:47:48;;;;;;;8.38;5.68;;;20.30;99.90;;;;;;5053671;28;20056;-68
2021/08/10 06:50:15;;;;;;;4.72;2.22;;;20.90;99.90;;;;;;5052596;28;20409;-66
2021/08/10 06:52:44;;;;;;;2.67;2.22;;;20.90;99.90;;;;;;5053130;28;20041;-70
2021/08/10 06:55:11;;;;;;;12.75;8.18;;;21.50;99.90;;;;;;5053680;28;20059;-69
2021/08/10 06:57:38;;;;;;;3.15;2.85;;;21.40;99.90;;;;;;5072013;28;20048;-69
2021/08/10 07:00:06;;;;;;;3.15;2.85;;;21.10;99.90;;;;;;5071120;28;20044;-67
2021/08/10 07:02:33;;;;;;;6.80;3.28;;;21.30;99.90;;;;;;5049960;28;20041;-67
2021/08/10 07:05:00;;;;;;;9.60;2.70;;;21.40;99.90;;;;;;5071198;28;20443;-69
2021/08/10 07:07:26;;;;;;;6.47;4.93;;;21.20;99.90;;;;;;5053259;28;20049;-69
2021/08/10 07:09:55;;;;;;;3.00;2.70;;;21.50;99.90;;;;;;5072235;28;20059;-65
2021/08/10 07:12:21;;;;;;;3.13;2.78;;;21.60;99.90;;;;;;5073274;28;20098;-66
2021/08/10 07:14:48;;;;;;;2.28;2.03;;;21.50;99.90;;;;;;5060579;28;20091;-68
2021/08/10 07:17:15;;;;;;;8.65;5.68;;;21.80;99.90;;;;;;5052976;28;20045;-69
2021/08/10 07:19:42;;;;;;;3.05;2.35;;;21.70;99.90;;;;;;5059282;28;20036;-68
2021/08/10 07:22:09;;;;;;;3.15;2.13;;;21.30;99.90;;;;;;5071713;28;20063;-68
2021/08/10 07:24:36;;;;;;;3.38;2.08;;;21.30;99.90;;;;;;5072531;28;20052;-69
2021/08/10 07:27:04;;;;;;;3.08;2.85;;;22.00;99.90;;;;;;5056811;28;20398;-68
2021/08/10 07:29:31;;;;;;;2.95;2.53;;;22.80;99.90;;;;;;5061573;28;20052;-68
2021/08/10 07:31:58;;;;;;;3.03;2.33;;;23.00;99.90;;;;;;5049849;28;20049;-68
2021/08/10 07:34:25;;;;;;;2.45;2.08;;;23.10;99.90;;;;;;5054086;28;20040;-67
2021/08/10 07:36:51;;;;;;;6.35;3.60;;;22.90;99.90;;;;;;5072832;28;20094;-69
2021/08/10 07:39:19;;;;;;;3.58;2.75;;;22.60;99.90;;;;;;5071749;28;20056;-69
2021/08/10 07:41:46;;;;;;;3.60;2.30;;;22.00;99.90;;;;;;5071682;28;20052;-68
2021/08/10 07:44:14;;;;;;;2.50;2.17;;;21.80;99.90;;;;;;5070393;28;20045;-70
2021/08/10 07:46:41;;;;;;;3.33;1.90;;;21.80;99.90;;;;;;5072806;28;20045;-65
2021/08/10 07:49:08;;;;;;;4.43;3.42;;;21.50;99.90;;;;;;5058145;28;20116;-70
2021/08/10 07:51:34;;;;;;;5.10;2.50;;;21.30;99.90;;;;;;5052855;28;20448;-66
2021/08/10 07:54:01;;;;;;;3.75;2.97;;;21.30;99.90;;;;;;5052059;28;20387;-74
2021/08/10 07:56:30;;;;;;;7.40;3.15;;;21.10;99.90;;;;;;5058063;28;20098;-67
2021/08/10 07:58:57;;;;;;;3.33;2.30;;;21.10;99.90;;;;;;5051569;28;20045;-70
2021/08/10 08:01:25;;;;;;;4.57;2.13;;;20.90;99.90;;;;;;5055648;28;20056;-75
2021/08/10 08:03:51;;;;;;;4.82;3.53;;;21.20;99.90;;;;;;5052055;28;20041;-76
2021/08/10 08:06:19;;;;;;;4.13;3.08;;;21.20;99.90;;;;;;5053485;28;20099;-75
2021/08/10 08:08:45;;;;;;;2.90;2.63;;;21.60;99.90;;;;;;5053496;28;20477;-75
2021/08/10 08:11:12;;;;;;;2.63;2.42;;;21.50;99.90;;;;;;5063421;28;20040;-75
2021/08/10 08:13:39;;;;;;;3.13;2.47;;;21.20;99.90;;;;;;5062255;28;20045;-72
2021/08/10 08:16:05;;;;;;;5.57;3.70;;;21.20;99.90;;;;;;5053672;28;20118;-72
2021/08/10 08:18:33;;;;;;;4.47;3.75;;;21.40;99.90;;;;;;5052381;28;20048;-73
2021/08/10 08:21:00;;;;;;;2.67;2.28;;;21.50;99.90;;;;;;5059782;28;20454;-72
2021/08/10 08:23:28;;;;;;;3.08;2.20;;;21.70;99.90;;;;;;5066874;28;20049;-70
2021/08/10 08:25:55;;;;;;;5.30;2.55;;;21.50;99.90;;;;;;5054372;28;20421;-71
2021/08/10 08:28:22;;;;;;;3.05;2.33;;;21.50;99.90;;;;;;5057350;28;20094;-77
2021/08/10 08:30:49;;;;;;;4.53;3.47;;;21.30;99.90;;;;;;5053359;28;20057;-76
2021/08/10 08:33:15;;;;;;;5.35;2.95;;;21.10;99.90;;;;;;5059581;28;20048;-74
2021/08/10 08:35:44;;;;;;;15.70;9.57;;;21.10;99.90;;;;;;5055988;28;20559;-76
2021/08/10 08:38:12;;;;;;;7.07;4.80;;;20.90;99.90;;;;;;5052662;28;20048;-76
2021/08/10 08:40:43;;;;;;;51.60;30.45;;;21.00;99.90;;;;;;5058714;28;20045;-74
2021/08/10 08:43:10;;;;;;;9.00;4.53;;;21.00;99.90;;;;;;5064400;28;20049;-72
2021/08/10 08:45:37;;;;;;;15.25;9.48;;;21.20;99.90;;;;;;5067038;28;20044;-71
2021/08/10 08:48:05;;;;;;;3.75;3.22;;;21.00;99.90;;;;;;5070842;28;20488;-70
2021/08/10 08:50:33;;;;;;;7.90;5.15;;;21.10;99.90;;;;;;5068520;28;20087;-70
2021/08/10 08:53:03;;;;;;;3.15;2.65;;;21.30;99.90;;;;;;5068079;28;20111;-70
2021/08/10 08:55:30;;;;;;;3.45;2.85;;;21.20;99.90;;;;;;5059819;28;20508;-71
2021/08/10 08:57:57;;;;;;;5.55;3.03;;;21.50;99.90;;;;;;5057450;28;20094;-69
2021/08/10 09:00:24;;;;;;;2.88;2.60;;;21.30;99.90;;;;;;5058485;28;20078;-69
2021/08/10 09:02:51;;;;;;;3.33;2.40;;;21.30;99.90;;;;;;5067891;28;20098;-69
2021/08/10 09:05:18;;;;;;;4.43;3.08;;;21.30;99.90;;;;;;5075247;28;20098;-69
2021/08/10 09:07:44;;;;;;;4.20;2.78;;;21.30;99.90;;;;;;5074667;28;20049;-69
2021/08/10 09:10:14;;;;;;;6.90;3.70;;;21.40;99.90;;;;;;5066247;28;20099;-71
2021/08/10 09:12:45;;;;;;;3.13;2.50;;;21.40;99.90;;;;;;5055601;28;20045;-71
2021/08/10 09:15:12;;;;;;;;;;;21.40;99.90;;;;;;5055503;28;20044;-67
2021/08/10 09:17:47;;;;;;;4.95;3.20;;;21.60;99.90;;;;;;5055549;28;19966;-76
2021/08/10 09:20:21;;;;;;;4.28;2.78;;;21.80;99.90;;;;;;5057891;28;20110;-67
2021/08/10 09:22:52;;;;;;;2.47;2.13;;;22.00;99.90;;;;;;5070768;28;20501;-73
2021/08/10 09:25:22;;;;;;;3.55;2.53;;;21.90;99.90;;;;;;5063411;28;20041;-71
2021/08/10 09:27:49;;;;;;;3.20;2.83;;;21.90;99.90;;;;;;5071991;28;20525;-73
2021/08/10 09:30:25;;;;;;;3.95;3.10;;;21.90;99.90;;;;;;5063024;28;20080;-74
2021/08/10 09:32:57;;;;;;;4.07;2.67;;;21.90;99.90;;;;;;5056029;28;20036;-74
2021/08/10 09:35:29;;;;;;;4.07;2.72;;;21.60;99.90;;;;;;5056053;28;20126;-75
2021/08/10 09:38:11;;;;;;;2.50;2.30;;;21.60;99.90;;;;;;5056675;28;20041;-75
2021/08/10 09:40:43;;;;;;;3.60;2.65;;;21.20;99.90;;;;;;5055574;28;20052;-76
2021/08/10 09:43:39;;;;;;;3.20;2.90;;;21.30;99.90;;;;;;5056277;28;20540;-75
2021/08/10 09:46:14;;;;;;;4.93;2.60;;;21.50;99.90;;;;;;5056678;28;20053;-74
2021/08/10 09:48:44;;;;;;;3.10;2.80;;;21.40;99.90;;;;;;5064749;28;20045;-71
2021/08/10 09:51:15;;;;;;;3.95;2.78;;;21.50;99.90;;;;;;5064663;28;20044;-70
2021/08/10 09:53:54;;;;;;;5.13;3.05;;;21.70;99.90;;;;;;5075277;28;20135;-69
2021/08/10 09:56:35;;;;;;;3.35;2.78;;;21.80;99.90;;;;;;5059459;28;20131;-71
2021/08/10 09:59:03;;;;;;;2.88;2.65;;;22.00;99.90;;;;;;5069771;28;20048;-73
2021/08/10 10:01:34;;;;;;;2.45;2.25;;;22.00;99.90;;;;;;5077172;28;20496;-71
2021/08/10 10:04:13;;;;;;;3.03;2.53;;;21.80;99.90;;;;;;5038542;28;20164;-69
2021/08/10 10:06:40;;;;;;;4.43;3.38;;;22.20;99.90;;;;;;5054330;28;20428;-67
2021/08/10 10:09:07;;;;;;;3.10;2.60;;;22.80;99.90;;;;;;5054252;28;20053;-67
2021/08/10 10:11:38;;;;;;;4.60;2.20;;;23.50;99.90;;;;;;5054402;28;20489;-67
2021/08/10 10:14:06;;;;;;;3.05;2.40;;;24.40;99.90;;;;;;5060700;28;20052;-68
2021/08/10 10:16:34;;;;;;;2.40;2.20;;;25.10;99.90;;;;;;5068845;28;20080;-68
2021/08/10 10:19:05;;;;;;;2.70;2.38;;;25.10;99.90;;;;;;5061287;28;20096;-68
2021/08/10 10:21:32;;;;;;;;;;;25.60;99.90;;;;;;5060277;28;20455;-69
2021/08/10 10:24:03;;;;;;;2.15;1.60;;;26.40;98.40;;;;;;5067129;28;20235;-68
2021/08/10 10:26:32;;;;;;;2.97;1.90;;;26.20;96.70;;;;;;5067221;28;20492;-68
2021/08/10 10:29:01;;;;;;;1.80;1.70;;;26.00;93.90;;;;;;5057515;28;20053;-69
2021/08/10 10:31:28;;;;;;;1.67;1.52;;;25.70;94.20;;;;;;5054078;28;20450;-70
2021/08/10 10:33:57;;;;;;;1.70;1.60;;;26.10;90.00;;;;;;5070012;28;20060;-68
2021/08/10 10:36:24;;;;;;;2.00;1.30;;;25.70;90.80;;;;;;5064579;28;20049;-70
2021/08/10 10:38:54;;;;;;;1.80;1.70;;;25.60;88.30;;;;;;5068127;28;20050;-68
2021/08/10 10:41:25;;;;;;;2.47;2.00;;;25.00;91.10;;;;;;5073606;28;20115;-69
2021/08/10 10:43:53;;;;;;;1.58;1.48;;;24.40;91.70;;;;;;5061742;28;20049;-69
2021/08/10 10:46:31;;;;;;;2.30;2.10;;;24.30;92.50;;;;;;5053556;28;20111;-68
2021/08/10 10:48:59;;;;;;;2.40;1.42;;;24.40;93.10;;;;;;5053329;28;20102;-69
2021/08/10 10:51:32;;;;;;;2.20;1.50;;;24.30;92.40;;;;;;5053877;28;20490;-68
2021/08/10 10:54:25;;;;;;;2.95;1.55;;;23.90;93.40;;;;;;5053564;28;20120;-69
2021/08/10 10:56:53;;;;;;;4.20;1.90;;;23.60;94.00;;;;;;5049908;28;20486;-68
2021/08/10 10:59:32;;;;;;;1.88;1.63;;;23.30;94.50;;;;;;5054068;28;20090;-68
2021/08/10 11:02:18;;;;;;;1.75;1.50;;;23.10;94.30;;;;;;5057499;28;20052;-69
2021/08/10 11:05:21;;;;;;;1.77;1.67;;;23.30;95.10;;;;;;5053149;28;20495;-67
2021/08/10 11:07:50;;;;;;;7.75;4.97;;;23.10;94.50;;;;;;5057896;28;20067;-69
2021/08/10 11:10:36;;;;;;;2.38;1.65;;;23.50;94.50;;;;;;5052516;28;20091;-70
2021/08/10 11:13:04;;;;;;;2.97;2.10;;;23.80;94.60;;;;;;5054652;28;20061;-69
2021/08/10 11:15:55;;;;;;;2.03;1.83;;;24.30;93.20;;;;;;5053023;28;20052;-67
2021/08/10 11:18:26;;;;;;;2.03;1.40;;;24.20;91.90;;;;;;5055782;28;20049;-73
2021/08/10 11:20:54;;;;;;;6.32;1.83;;;23.60;92.90;;;;;;5062012;28;20053;-68
2021/08/10 11:23:35;;;;;;;2.97;1.27;;;23.70;92.60;;;;;;5070945;28;20052;-69
2021/08/10 11:26:34;;;;;;;1.80;1.53;;;23.80;93.00;;;;;;5064410;28;20056;-69
2021/08/10 11:29:02;;;;;;;2.65;1.67;;;24.30;92.40;;;;;;5072293;28;20303;-69
2021/08/10 11:31:41;;;;;;;1.48;1.38;;;24.00;90.00;;;;;;5062462;28;20051;-69
2021/08/10 11:34:32;;;;;;;2.53;1.10;;;23.70;91.30;;;;;;5062519;28;20051;-70
2021/08/10 11:37:28;;;;;;;2.70;1.67;;;23.80;90.40;;;;;;5033650;28;20057;-72
2021/08/10 11:40:06;;;;;;;1.83;1.10;;;23.90;90.10;;;;;;5064632;28;20048;-72
2021/08/10 11:42:33;;;;;;;2.35;1.17;;;24.80;90.30;;;;;;5067256;28;20500;-68
2021/08/10 11:45:03;;;;;;;2.75;1.00;;;25.90;83.90;;;;;;5072320;28;20048;-69
2021/08/10 11:47:31;;;;;;;2.25;1.95;;;26.30;82.30;;;;;;5068122;28;20095;-71
2021/08/10 11:50:00;;;;;;;1.52;0.80;;;26.50;82.80;;;;;;5058895;28;20501;-69
2021/08/10 11:52:47;;;;;;;1.67;1.20;;;25.20;80.60;;;;;;5071475;28;20052;-70
2021/08/10 11:55:16;;;;;;;1.65;1.08;;;24.70;82.30;;;;;;5064958;28;20091;-72
2021/08/10 11:57:57;;;;;;;3.83;1.50;;;24.80;84.30;;;;;;5052569;28;20064;-69
2021/08/10 12:00:25;;;;;;;3.20;1.80;;;24.60;83.00;;;;;;5052003;28;20485;-70
2021/08/10 12:02:52;;;;;;;2.72;1.63;;;24.60;85.10;;;;;;5052312;28;20049;-71
2021/08/10 12:05:21;;;;;;;4.18;1.40;;;24.40;85.70;;;;;;5052092;28;20045;-72
2021/08/10 12:07:53;;;;;;;2.35;1.48;;;24.40;88.30;;;;;;5052391;28;20102;-70
2021/08/10 12:10:32;;;;;;;4.03;1.55;;;24.40;87.50;;;;;;5051619;28;20081;-71
2021/08/10 12:13:01;;;;;;;3.50;1.92;;;24.10;86.30;;;;;;5069537;28;20090;-68
2021/08/10 12:15:44;;;;;;;1.58;1.48;;;23.80;90.60;;;;;;5053987;28;20041;-69
2021/08/10 12:18:13;;;;;;;2.40;1.83;;;23.70;89.40;;;;;;5061683;28;20083;-72
2021/08/10 12:20:42;;;;;;;2.78;1.73;;;23.80;88.00;;;;;;5069538;28;20041;-72
2021/08/10 12:23:10;;;;;;;2.22;1.80;;;24.30;88.80;;;;;;5069767;28;20105;-69
2021/08/10 12:25:37;;;;;;;1.75;1.52;;;24.90;88.20;;;;;;5070930;28;20044;-69
2021/08/10 12:28:06;;;;;;;1.73;1.40;;;24.80;88.30;;;;;;5056632;28;20041;-69
2021/08/10 12:30:34;;;;;;;2.10;1.85;;;24.60;87.80;;;;;;5050943;28;20501;-70
2021/08/10 12:33:17;;;;;;;2.25;1.27;;;25.00;87.50;;;;;;5052710;28;20489;-72
2021/08/10 12:36:12;;;;;;;2.30;1.60;;;24.70;86.90;;;;;;5055538;28;20049;-67
2021/08/10 12:38:39;;;;;;;2.15;1.50;;;24.50;87.30;;;;;;5010978;28;20049;-68
2021/08/10 12:41:06;;;;;;;2.47;1.60;;;24.20;88.10;;;;;;5059702;28;20041;-69
2021/08/10 12:43:33;;;;;;;1.90;1.45;;;24.10;90.50;;;;;;5051449;28;20053;-70
2021/08/10 12:46:00;;;;;;;3.70;2.17;;;24.30;90.50;;;;;;5068980;28;20455;-66
2021/08/10 12:48:32;;;;;;;2.90;1.80;;;24.50;90.00;;;;;;5070963;28;20111;-66
2021/08/10 12:51:02;;;;;;;4.43;2.20;;;24.40;90.10;;;;;;5071212;28;20057;-68
2021/08/10 12:53:35;;;;;;;2.42;1.73;;;24.70;89.10;;;;;;5071535;28;20094;-68
2021/08/10 12:56:03;;;;;;;2.83;2.10;;;25.80;86.70;;;;;;5058185;28;20128;-68
2021/08/10 12:58:31;;;;;;;2.05;1.70;;;26.30;84.50;;;;;;5050902;28;20464;-68